sensor_id;sensor_type;location;lat;lon;timestamp;P1;durP1;ratioP1;P2;durP2;ratioP2
54416;SDS011;40326;51.220;7.250;2023-01-24T00:01:08;13.43;;;9.73;;
54416;SDS011;40326;51.220;7.250;2023-01-24T00:03:33;12.65;;;10.10;;
54416;SDS011;40326;51.220;7.250;2023-01-24T00:05:58;12.63;;;9.35;;
54416;SDS011;40326;51.220;7.250;2023-01-24T00:08:24;12.50;;;9.38;;
54416;SDS011;40326;51.220;7.250;2023-01-24T00:10:56;12.18;;;9.18;;
54416;SDS011;40326;51.220;7.250;2023-01-24T00:13:22;12.38;;;8.80;;
54416;SDS011;40326;51.220;7.250;2023-01-24T00:15:47;12.27;;;8.95;;
54416;SDS011;40326;51.220;7.250;2023-01-24T00:18:12;12.15;;;9.00;;
54416;SDS011;40326;51.220;7.250;2023-01-24T00:20:37;12.00;;;8.85;;
54416;SDS011;40326;51.220;7.250;2023-01-24T00:23:04;11.98;;;9.13;;
54416;SDS011;40326;51.220;7.250;2023-01-24T00:25:29;12.98;;;9.25;;
54416;SDS011;40326;51.220;7.250;2023-01-24T00:27:54;11.35;;;8.75;;
54416;SDS011;40326;51.220;7.250;2023-01-24T00:30:19;12.23;;;8.70;;
54416;SDS011;40326;51.220;7.250;2023-01-24T00:32:45;11.93;;;8.38;;
54416;SDS011;40326;51.220;7.250;2023-01-24T00:35:10;12.70;;;10.10;;
54416;SDS011;40326;51.220;7.250;2023-01-24T00:37:35;12.45;;;9.27;;
54416;SDS011;40326;51.220;7.250;2023-01-24T00:40:01;11.65;;;8.88;;
54416;SDS011;40326;51.220;7.250;2023-01-24T00:42:26;11.90;;;8.98;;
54416;SDS011;40326;51.220;7.250;2023-01-24T00:44:51;14.27;;;10.38;;
54416;SDS011;40326;51.220;7.250;2023-01-24T00:47:17;12.40;;;9.38;;
54416;SDS011;40326;51.220;7.250;2023-01-24T00:49:42;10.75;;;7.88;;
54416;SDS011;40326;51.220;7.250;2023-01-24T00:52:07;12.15;;;9.32;;
54416;SDS011;40326;51.220;7.250;2023-01-24T00:54:32;11.18;;;8.43;;
54416;SDS011;40326;51.220;7.250;2023-01-24T00:56:57;12.73;;;9.43;;
54416;SDS011;40326;51.220;7.250;2023-01-24T00:59:23;12.07;;;8.95;;
54416;SDS011;40326;51.220;7.250;2023-01-24T01:01:48;10.95;;;8.38;;
54416;SDS011;40326;51.220;7.250;2023-01-24T01:04:13;12.13;;;8.88;;
54416;SDS011;40326;51.220;7.250;2023-01-24T01:06:38;12.52;;;8.93;;
54416;SDS011;40326;51.220;7.250;2023-01-24T01:09:03;11.93;;;8.85;;
54416;SDS011;40326;51.220;7.250;2023-01-24T01:11:29;11.40;;;8.43;;
54416;SDS011;40326;51.220;7.250;2023-01-24T01:13:55;12.55;;;9.43;;
54416;SDS011;40326;51.220;7.250;2023-01-24T01:16:20;12.15;;;9.73;;
54416;SDS011;40326;51.220;7.250;2023-01-24T01:18:46;12.02;;;8.68;;
54416;SDS011;40326;51.220;7.250;2023-01-24T01:21:12;12.55;;;9.18;;
54416;SDS011;40326;51.220;7.250;2023-01-24T01:23:37;11.40;;;8.85;;
54416;SDS011;40326;51.220;7.250;2023-01-24T01:26:05;12.52;;;8.85;;
54416;SDS011;40326;51.220;7.250;2023-01-24T01:28:30;12.10;;;8.45;;
54416;SDS011;40326;51.220;7.250;2023-01-24T01:30:56;11.55;;;8.85;;
54416;SDS011;40326;51.220;7.250;2023-01-24T01:33:21;12.10;;;9.02;;
54416;SDS011;40326;51.220;7.250;2023-01-24T01:35:47;12.65;;;9.00;;
54416;SDS011;40326;51.220;7.250;2023-01-24T01:38:12;12.98;;;9.70;;
54416;SDS011;40326;51.220;7.250;2023-01-24T01:40:37;11.98;;;9.27;;
54416;SDS011;40326;51.220;7.250;2023-01-24T01:43:02;12.65;;;9.23;;
54416;SDS011;40326;51.220;7.250;2023-01-24T01:45:33;14.18;;;10.15;;
54416;SDS011;40326;51.220;7.250;2023-01-24T01:47:59;12.65;;;9.13;;
54416;SDS011;40326;51.220;7.250;2023-01-24T01:50:26;12.65;;;9.38;;
54416;SDS011;40326;51.220;7.250;2023-01-24T01:52:53;12.05;;;8.45;;
54416;SDS011;40326;51.220;7.250;2023-01-24T01:55:19;12.35;;;8.77;;
54416;SDS011;40326;51.220;7.250;2023-01-24T01:57:45;13.48;;;10.07;;
54416;SDS011;40326;51.220;7.250;2023-01-24T02:00:13;10.93;;;8.57;;
54416;SDS011;40326;51.220;7.250;2023-01-24T02:02:40;12.32;;;9.20;;
54416;SDS011;40326;51.220;7.250;2023-01-24T02:05:06;11.10;;;8.63;;
54416;SDS011;40326;51.220;7.250;2023-01-24T02:10:06;12.45;;;9.82;;
54416;SDS011;40326;51.220;7.250;2023-01-24T02:12:33;11.77;;;8.88;;
54416;SDS011;40326;51.220;7.250;2023-01-24T02:15:03;11.90;;;9.15;;
54416;SDS011;40326;51.220;7.250;2023-01-24T02:17:47;10.75;;;8.23;;
54416;SDS011;40326;51.220;7.250;2023-01-24T02:25:26;13.77;;;9.43;;
54416;SDS011;40326;51.220;7.250;2023-01-24T02:27:54;11.30;;;8.13;;
54416;SDS011;40326;51.220;7.250;2023-01-24T02:30:20;10.75;;;8.10;;
54416;SDS011;40326;51.220;7.250;2023-01-24T02:32:45;11.48;;;8.30;;
54416;SDS011;40326;51.220;7.250;2023-01-24T02:35:27;10.80;;;8.45;;
54416;SDS011;40326;51.220;7.250;2023-01-24T02:37:52;10.55;;;7.70;;
54416;SDS011;40326;51.220;7.250;2023-01-24T02:40:18;11.10;;;8.20;;
54416;SDS011;40326;51.220;7.250;2023-01-24T02:42:43;10.82;;;8.55;;
54416;SDS011;40326;51.220;7.250;2023-01-24T02:45:20;11.55;;;8.65;;
54416;SDS011;40326;51.220;7.250;2023-01-24T02:47:47;11.63;;;8.32;;
54416;SDS011;40326;51.220;7.250;2023-01-24T02:50:12;11.82;;;8.60;;
54416;SDS011;40326;51.220;7.250;2023-01-24T02:52:38;9.65;;;7.43;;
54416;SDS011;40326;51.220;7.250;2023-01-24T02:55:22;9.85;;;7.43;;
54416;SDS011;40326;51.220;7.250;2023-01-24T02:57:47;9.80;;;7.28;;
54416;SDS011;40326;51.220;7.250;2023-01-24T03:00:30;11.25;;;8.35;;
54416;SDS011;40326;51.220;7.250;2023-01-24T03:02:55;10.20;;;7.65;;
54416;SDS011;40326;51.220;7.250;2023-01-24T03:05:21;10.32;;;8.02;;
54416;SDS011;40326;51.220;7.250;2023-01-24T03:07:46;10.40;;;7.95;;
54416;SDS011;40326;51.220;7.250;2023-01-24T03:10:12;10.73;;;7.90;;
54416;SDS011;40326;51.220;7.250;2023-01-24T03:12:38;10.05;;;7.57;;
54416;SDS011;40326;51.220;7.250;2023-01-24T03:15:22;9.80;;;7.10;;
54416;SDS011;40326;51.220;7.250;2023-01-24T03:20:50;11.35;;;7.47;;
54416;SDS011;40326;51.220;7.250;2023-01-24T03:26:17;10.35;;;7.70;;
54416;SDS011;40326;51.220;7.250;2023-01-24T03:31:45;11.43;;;7.18;;
54416;SDS011;40326;51.220;7.250;2023-01-24T03:36:58;10.52;;;7.57;;
54416;SDS011;40326;51.220;7.250;2023-01-24T03:39:23;10.68;;;7.80;;
54416;SDS011;40326;51.220;7.250;2023-01-24T03:42:07;11.45;;;8.20;;
54416;SDS011;40326;51.220;7.250;2023-01-24T03:44:32;10.20;;;6.97;;
54416;SDS011;40326;51.220;7.250;2023-01-24T03:46:57;10.75;;;7.60;;
54416;SDS011;40326;51.220;7.250;2023-01-24T03:49:22;9.70;;;7.20;;
54416;SDS011;40326;51.220;7.250;2023-01-24T03:52:06;10.77;;;7.38;;
54416;SDS011;40326;51.220;7.250;2023-01-24T03:57:15;11.52;;;7.90;;
54416;SDS011;40326;51.220;7.250;2023-01-24T03:59:40;11.40;;;7.55;;
54416;SDS011;40326;51.220;7.250;2023-01-24T04:02:05;9.77;;;7.40;;
54416;SDS011;40326;51.220;7.250;2023-01-24T04:04:31;11.38;;;7.93;;
54416;SDS011;40326;51.220;7.250;2023-01-24T04:07:16;10.65;;;7.85;;
54416;SDS011;40326;51.220;7.250;2023-01-24T04:09:41;10.30;;;7.65;;
54416;SDS011;40326;51.220;7.250;2023-01-24T04:12:06;10.93;;;8.00;;
54416;SDS011;40326;51.220;7.250;2023-01-24T04:14:31;11.40;;;8.50;;
54416;SDS011;40326;51.220;7.250;2023-01-24T04:16:56;10.68;;;7.93;;
54416;SDS011;40326;51.220;7.250;2023-01-24T04:19:22;11.73;;;8.32;;
54416;SDS011;40326;51.220;7.250;2023-01-24T04:21:47;10.82;;;7.78;;
54416;SDS011;40326;51.220;7.250;2023-01-24T04:24:12;10.07;;;7.30;;
54416;SDS011;40326;51.220;7.250;2023-01-24T04:26:37;9.93;;;7.47;;
54416;SDS011;40326;51.220;7.250;2023-01-24T04:29:02;9.70;;;6.90;;
54416;SDS011;40326;51.220;7.250;2023-01-24T04:31:28;10.85;;;7.97;;
54416;SDS011;40326;51.220;7.250;2023-01-24T04:33:53;10.52;;;8.13;;
54416;SDS011;40326;51.220;7.250;2023-01-24T04:36:18;11.02;;;8.05;;
54416;SDS011;40326;51.220;7.250;2023-01-24T04:38:43;11.35;;;8.32;;
54416;SDS011;40326;51.220;7.250;2023-01-24T04:41:08;11.15;;;8.32;;
54416;SDS011;40326;51.220;7.250;2023-01-24T04:43:37;10.63;;;8.02;;
54416;SDS011;40326;51.220;7.250;2023-01-24T04:46:02;12.10;;;8.60;;
54416;SDS011;40326;51.220;7.250;2023-01-24T04:48:27;11.38;;;8.00;;
54416;SDS011;40326;51.220;7.250;2023-01-24T04:50:57;11.38;;;8.07;;
54416;SDS011;40326;51.220;7.250;2023-01-24T04:53:22;12.07;;;9.23;;
54416;SDS011;40326;51.220;7.250;2023-01-24T04:55:47;9.75;;;7.40;;
54416;SDS011;40326;51.220;7.250;2023-01-24T04:58:12;10.68;;;7.72;;
54416;SDS011;40326;51.220;7.250;2023-01-24T05:00:37;12.38;;;8.35;;
54416;SDS011;40326;51.220;7.250;2023-01-24T05:03:02;10.85;;;8.18;;
54416;SDS011;40326;51.220;7.250;2023-01-24T05:05:28;11.13;;;8.35;;
54416;SDS011;40326;51.220;7.250;2023-01-24T05:07:53;11.27;;;8.32;;
54416;SDS011;40326;51.220;7.250;2023-01-24T05:10:18;11.77;;;8.27;;
54416;SDS011;40326;51.220;7.250;2023-01-24T05:12:46;13.05;;;8.93;;
54416;SDS011;40326;51.220;7.250;2023-01-24T05:15:11;12.23;;;8.68;;
54416;SDS011;40326;51.220;7.250;2023-01-24T05:17:36;11.88;;;8.57;;
54416;SDS011;40326;51.220;7.250;2023-01-24T05:20:02;13.88;;;9.45;;
54416;SDS011;40326;51.220;7.250;2023-01-24T05:22:28;12.63;;;8.85;;
54416;SDS011;40326;51.220;7.250;2023-01-24T05:24:53;14.07;;;8.63;;
54416;SDS011;40326;51.220;7.250;2023-01-24T05:27:18;11.45;;;8.73;;
54416;SDS011;40326;51.220;7.250;2023-01-24T05:29:43;11.43;;;8.32;;
54416;SDS011;40326;51.220;7.250;2023-01-24T05:32:08;12.77;;;9.40;;
54416;SDS011;40326;51.220;7.250;2023-01-24T05:34:34;12.15;;;9.07;;
54416;SDS011;40326;51.220;7.250;2023-01-24T05:36:59;13.50;;;9.43;;
54416;SDS011;40326;51.220;7.250;2023-01-24T05:39:24;12.73;;;9.00;;
54416;SDS011;40326;51.220;7.250;2023-01-24T05:41:49;12.98;;;9.27;;
54416;SDS011;40326;51.220;7.250;2023-01-24T05:44:14;12.45;;;9.52;;
54416;SDS011;40326;51.220;7.250;2023-01-24T05:46:40;13.20;;;9.30;;
54416;SDS011;40326;51.220;7.250;2023-01-24T05:49:05;12.50;;;9.20;;
54416;SDS011;40326;51.220;7.250;2023-01-24T05:51:30;14.02;;;10.07;;
54416;SDS011;40326;51.220;7.250;2023-01-24T05:53:55;13.23;;;9.43;;
54416;SDS011;40326;51.220;7.250;2023-01-24T05:56:20;13.80;;;9.32;;
54416;SDS011;40326;51.220;7.250;2023-01-24T05:58:46;13.93;;;10.00;;
54416;SDS011;40326;51.220;7.250;2023-01-24T06:01:13;14.45;;;9.88;;
54416;SDS011;40326;51.220;7.250;2023-01-24T06:03:42;12.63;;;9.00;;
54416;SDS011;40326;51.220;7.250;2023-01-24T06:06:08;12.93;;;9.52;;
54416;SDS011;40326;51.220;7.250;2023-01-24T06:08:33;13.57;;;9.68;;
54416;SDS011;40326;51.220;7.250;2023-01-24T06:11:06;12.93;;;9.23;;
54416;SDS011;40326;51.220;7.250;2023-01-24T06:13:31;11.75;;;8.88;;
54416;SDS011;40326;51.220;7.250;2023-01-24T06:16:00;11.18;;;8.70;;
54416;SDS011;40326;51.220;7.250;2023-01-24T06:18:26;11.50;;;8.70;;
54416;SDS011;40326;51.220;7.250;2023-01-24T06:20:51;13.10;;;9.38;;
54416;SDS011;40326;51.220;7.250;2023-01-24T06:23:21;11.15;;;8.98;;
54416;SDS011;40326;51.220;7.250;2023-01-24T06:25:47;13.68;;;9.48;;
54416;SDS011;40326;51.220;7.250;2023-01-24T06:28:13;11.57;;;8.32;;
54416;SDS011;40326;51.220;7.250;2023-01-24T06:30:38;12.63;;;9.93;;
54416;SDS011;40326;51.220;7.250;2023-01-24T06:37:55;13.15;;;9.27;;
54416;SDS011;40326;51.220;7.250;2023-01-24T06:40:22;12.40;;;8.88;;
54416;SDS011;40326;51.220;7.250;2023-01-24T06:42:48;13.18;;;9.77;;
54416;SDS011;40326;51.220;7.250;2023-01-24T06:45:13;14.23;;;9.82;;
54416;SDS011;40326;51.220;7.250;2023-01-24T06:47:38;12.50;;;8.65;;
54416;SDS011;40326;51.220;7.250;2023-01-24T06:50:05;11.80;;;9.07;;
54416;SDS011;40326;51.220;7.250;2023-01-24T06:52:32;12.65;;;8.52;;
54416;SDS011;40326;51.220;7.250;2023-01-24T06:54:58;13.10;;;9.23;;
54416;SDS011;40326;51.220;7.250;2023-01-24T06:57:23;12.05;;;9.18;;
54416;SDS011;40326;51.220;7.250;2023-01-24T06:59:49;12.07;;;9.52;;
54416;SDS011;40326;51.220;7.250;2023-01-24T07:02:14;13.77;;;9.73;;
54416;SDS011;40326;51.220;7.250;2023-01-24T07:04:39;12.93;;;9.38;;
54416;SDS011;40326;51.220;7.250;2023-01-24T07:07:04;13.05;;;9.60;;
54416;SDS011;40326;51.220;7.250;2023-01-24T07:09:31;14.32;;;9.63;;
54416;SDS011;40326;51.220;7.250;2023-01-24T07:11:56;12.73;;;9.45;;
54416;SDS011;40326;51.220;7.250;2023-01-24T07:14:23;14.02;;;9.45;;
54416;SDS011;40326;51.220;7.250;2023-01-24T07:16:48;12.98;;;9.45;;
54416;SDS011;40326;51.220;7.250;2023-01-24T07:19:15;13.35;;;9.77;;
54416;SDS011;40326;51.220;7.250;2023-01-24T07:21:41;12.55;;;9.02;;
54416;SDS011;40326;51.220;7.250;2023-01-24T07:24:14;13.85;;;10.07;;
54416;SDS011;40326;51.220;7.250;2023-01-24T07:26:40;13.77;;;9.85;;
54416;SDS011;40326;51.220;7.250;2023-01-24T07:29:05;13.52;;;9.50;;
54416;SDS011;40326;51.220;7.250;2023-01-24T07:31:31;14.95;;;11.05;;
54416;SDS011;40326;51.220;7.250;2023-01-24T07:33:56;13.40;;;9.98;;
54416;SDS011;40326;51.220;7.250;2023-01-24T07:36:21;15.23;;;10.98;;
54416;SDS011;40326;51.220;7.250;2023-01-24T07:38:46;13.48;;;10.05;;
54416;SDS011;40326;51.220;7.250;2023-01-24T07:41:12;13.95;;;10.15;;
54416;SDS011;40326;51.220;7.250;2023-01-24T07:43:37;14.52;;;10.45;;
54416;SDS011;40326;51.220;7.250;2023-01-24T07:46:02;13.02;;;9.98;;
54416;SDS011;40326;51.220;7.250;2023-01-24T07:48:29;14.60;;;9.88;;
54416;SDS011;40326;51.220;7.250;2023-01-24T07:50:57;13.82;;;10.57;;
54416;SDS011;40326;51.220;7.250;2023-01-24T07:53:22;13.88;;;9.65;;
54416;SDS011;40326;51.220;7.250;2023-01-24T07:55:47;13.60;;;9.88;;
54416;SDS011;40326;51.220;7.250;2023-01-24T07:58:12;13.98;;;10.98;;
54416;SDS011;40326;51.220;7.250;2023-01-24T08:00:38;13.43;;;10.35;;
54416;SDS011;40326;51.220;7.250;2023-01-24T08:03:03;13.75;;;10.65;;
54416;SDS011;40326;51.220;7.250;2023-01-24T08:05:28;14.82;;;10.90;;
54416;SDS011;40326;51.220;7.250;2023-01-24T08:07:54;15.15;;;11.40;;
54416;SDS011;40326;51.220;7.250;2023-01-24T08:10:19;13.68;;;10.70;;
54416;SDS011;40326;51.220;7.250;2023-01-24T08:12:47;13.90;;;10.40;;
54416;SDS011;40326;51.220;7.250;2023-01-24T08:15:12;13.43;;;10.45;;
54416;SDS011;40326;51.220;7.250;2023-01-24T08:17:38;13.68;;;9.73;;
54416;SDS011;40326;51.220;7.250;2023-01-24T08:20:04;13.23;;;10.50;;
54416;SDS011;40326;51.220;7.250;2023-01-24T08:22:29;13.85;;;10.02;;
54416;SDS011;40326;51.220;7.250;2023-01-24T08:24:55;14.60;;;10.00;;
54416;SDS011;40326;51.220;7.250;2023-01-24T08:27:20;14.60;;;10.98;;
54416;SDS011;40326;51.220;7.250;2023-01-24T08:29:45;14.35;;;10.85;;
54416;SDS011;40326;51.220;7.250;2023-01-24T08:32:10;13.77;;;10.68;;
54416;SDS011;40326;51.220;7.250;2023-01-24T08:34:36;14.57;;;11.57;;
54416;SDS011;40326;51.220;7.250;2023-01-24T08:37:01;14.95;;;10.45;;
54416;SDS011;40326;51.220;7.250;2023-01-24T08:39:26;14.43;;;11.02;;
54416;SDS011;40326;51.220;7.250;2023-01-24T08:41:51;16.58;;;11.50;;
54416;SDS011;40326;51.220;7.250;2023-01-24T08:44:16;12.82;;;10.65;;
54416;SDS011;40326;51.220;7.250;2023-01-24T08:46:42;13.98;;;10.18;;
54416;SDS011;40326;51.220;7.250;2023-01-24T08:49:09;15.32;;;11.80;;
54416;SDS011;40326;51.220;7.250;2023-01-24T08:51:34;13.77;;;10.32;;
54416;SDS011;40326;51.220;7.250;2023-01-24T08:53:59;14.30;;;10.38;;
54416;SDS011;40326;51.220;7.250;2023-01-24T08:56:24;15.00;;;11.70;;
54416;SDS011;40326;51.220;7.250;2023-01-24T08:58:50;13.32;;;10.57;;
54416;SDS011;40326;51.220;7.250;2023-01-24T09:01:15;13.63;;;10.10;;
54416;SDS011;40326;51.220;7.250;2023-01-24T09:03:40;13.55;;;9.05;;
54416;SDS011;40326;51.220;7.250;2023-01-24T09:06:05;13.15;;;10.05;;
54416;SDS011;40326;51.220;7.250;2023-01-24T09:08:31;12.77;;;10.30;;
54416;SDS011;40326;51.220;7.250;2023-01-24T09:11:00;13.00;;;9.98;;
54416;SDS011;40326;51.220;7.250;2023-01-24T09:13:25;13.07;;;10.07;;
54416;SDS011;40326;51.220;7.250;2023-01-24T09:15:51;14.05;;;10.82;;
54416;SDS011;40326;51.220;7.250;2023-01-24T09:18:16;12.43;;;10.13;;
54416;SDS011;40326;51.220;7.250;2023-01-24T09:20:41;12.85;;;10.15;;
54416;SDS011;40326;51.220;7.250;2023-01-24T09:23:07;12.65;;;10.23;;
54416;SDS011;40326;51.220;7.250;2023-01-24T09:25:33;13.27;;;11.00;;
54416;SDS011;40326;51.220;7.250;2023-01-24T09:27:58;12.85;;;9.98;;
54416;SDS011;40326;51.220;7.250;2023-01-24T09:30:23;12.65;;;9.93;;
54416;SDS011;40326;51.220;7.250;2023-01-24T09:32:48;12.90;;;10.05;;
54416;SDS011;40326;51.220;7.250;2023-01-24T09:35:14;12.85;;;9.57;;
54416;SDS011;40326;51.220;7.250;2023-01-24T09:37:39;12.32;;;9.70;;
54416;SDS011;40326;51.220;7.250;2023-01-24T09:40:15;12.65;;;9.70;;
54416;SDS011;40326;51.220;7.250;2023-01-24T09:42:44;13.13;;;10.55;;
54416;SDS011;40326;51.220;7.250;2023-01-24T09:47:41;11.88;;;9.50;;
54416;SDS011;40326;51.220;7.250;2023-01-24T09:50:09;14.43;;;10.27;;
54416;SDS011;40326;51.220;7.250;2023-01-24T09:52:42;12.32;;;9.32;;
54416;SDS011;40326;51.220;7.250;2023-01-24T10:00:21;12.40;;;8.93;;
54416;SDS011;40326;51.220;7.250;2023-01-24T10:02:46;12.18;;;9.65;;
54416;SDS011;40326;51.220;7.250;2023-01-24T10:05:12;11.75;;;9.65;;
54416;SDS011;40326;51.220;7.250;2023-01-24T10:07:44;11.85;;;9.73;;
54416;SDS011;40326;51.220;7.250;2023-01-24T10:12:57;10.90;;;8.27;;
54416;SDS011;40326;51.220;7.250;2023-01-24T10:15:39;11.75;;;9.73;;
54416;SDS011;40326;51.220;7.250;2023-01-24T10:23:20;11.65;;;8.77;;
54416;SDS011;40326;51.220;7.250;2023-01-24T10:25:50;12.15;;;8.55;;
54416;SDS011;40326;51.220;7.250;2023-01-24T10:28:18;10.50;;;8.77;;
54416;SDS011;40326;51.220;7.250;2023-01-24T10:30:45;11.35;;;9.05;;
54416;SDS011;40326;51.220;7.250;2023-01-24T10:33:15;11.93;;;8.98;;
54416;SDS011;40326;51.220;7.250;2023-01-24T10:35:58;12.00;;;9.57;;
54416;SDS011;40326;51.220;7.250;2023-01-24T10:38:25;11.30;;;8.95;;
54416;SDS011;40326;51.220;7.250;2023-01-24T10:40:54;11.93;;;9.27;;
54416;SDS011;40326;51.220;7.250;2023-01-24T10:43:24;14.07;;;9.18;;
54416;SDS011;40326;51.220;7.250;2023-01-24T10:50:43;9.83;;;8.20;;
54416;SDS011;40326;51.220;7.250;2023-01-24T10:53:21;10.10;;;7.93;;
54416;SDS011;40326;51.220;7.250;2023-01-24T10:55:47;9.73;;;8.05;;
54416;SDS011;40326;51.220;7.250;2023-01-24T10:58:20;9.05;;;7.82;;
54416;SDS011;40326;51.220;7.250;2023-01-24T11:00:45;10.30;;;8.40;;
54416;SDS011;40326;51.220;7.250;2023-01-24T11:03:18;9.57;;;8.32;;
54416;SDS011;40326;51.220;7.250;2023-01-24T11:05:46;12.43;;;7.87;;
54416;SDS011;40326;51.220;7.250;2023-01-24T11:08:15;11.02;;;8.65;;
54416;SDS011;40326;51.220;7.250;2023-01-24T11:10:41;10.63;;;8.90;;
54416;SDS011;40326;51.220;7.250;2023-01-24T11:15:47;11.45;;;9.82;;
54416;SDS011;40326;51.220;7.250;2023-01-24T11:20:40;11.48;;;9.00;;
54416;SDS011;40326;51.220;7.250;2023-01-24T11:23:15;10.98;;;9.15;;
54416;SDS011;40326;51.220;7.250;2023-01-24T11:25:57;10.68;;;8.45;;
54416;SDS011;40326;51.220;7.250;2023-01-24T11:28:30;10.02;;;8.73;;
54416;SDS011;40326;51.220;7.250;2023-01-24T11:30:56;10.48;;;9.30;;
54416;SDS011;40326;51.220;7.250;2023-01-24T11:38:56;10.63;;;8.63;;
54416;SDS011;40326;51.220;7.250;2023-01-24T11:41:35;11.35;;;8.77;;
54416;SDS011;40326;51.220;7.250;2023-01-24T11:52:06;10.70;;;8.55;;
54416;SDS011;40326;51.220;7.250;2023-01-24T11:54:54;10.45;;;9.35;;
54416;SDS011;40326;51.220;7.250;2023-01-24T12:02:56;11.23;;;8.65;;
54416;SDS011;40326;51.220;7.250;2023-01-24T12:10:28;12.10;;;8.80;;
54416;SDS011;40326;51.220;7.250;2023-01-24T12:12:59;10.55;;;8.70;;
54416;SDS011;40326;51.220;7.250;2023-01-24T12:15:29;10.90;;;8.63;;
54416;SDS011;40326;51.220;7.250;2023-01-24T12:22:54;11.32;;;9.35;;
54416;SDS011;40326;51.220;7.250;2023-01-24T12:25:27;11.70;;;8.95;;
54416;SDS011;40326;51.220;7.250;2023-01-24T12:28:04;10.52;;;9.30;;
54416;SDS011;40326;51.220;7.250;2023-01-24T12:38:18;10.93;;;8.77;;
54416;SDS011;40326;51.220;7.250;2023-01-24T12:43:22;10.02;;;8.07;;
54416;SDS011;40326;51.220;7.250;2023-01-24T12:45:55;10.82;;;8.85;;
54416;SDS011;40326;51.220;7.250;2023-01-24T12:48:25;10.05;;;7.90;;
54416;SDS011;40326;51.220;7.250;2023-01-24T12:51:18;11.07;;;9.05;;
54416;SDS011;40326;51.220;7.250;2023-01-24T12:56:23;10.05;;;8.82;;
54416;SDS011;40326;51.220;7.250;2023-01-24T12:58:50;11.90;;;9.05;;
54416;SDS011;40326;51.220;7.250;2023-01-24T13:01:27;11.07;;;9.00;;
54416;SDS011;40326;51.220;7.250;2023-01-24T13:06:39;10.35;;;8.57;;
54416;SDS011;40326;51.220;7.250;2023-01-24T13:11:34;11.13;;;9.23;;
54416;SDS011;40326;51.220;7.250;2023-01-24T13:14:17;11.50;;;9.35;;
54416;SDS011;40326;51.220;7.250;2023-01-24T13:16:52;11.15;;;8.98;;
54416;SDS011;40326;51.220;7.250;2023-01-24T13:22:38;11.30;;;8.52;;
54416;SDS011;40326;51.220;7.250;2023-01-24T13:27:36;10.10;;;8.18;;
54416;SDS011;40326;51.220;7.250;2023-01-24T13:32:30;11.00;;;9.80;;
54416;SDS011;40326;51.220;7.250;2023-01-24T13:35:00;10.35;;;8.75;;
54416;SDS011;40326;51.220;7.250;2023-01-24T13:37:26;10.98;;;8.82;;
54416;SDS011;40326;51.220;7.250;2023-01-24T13:40:03;11.20;;;9.30;;
54416;SDS011;40326;51.220;7.250;2023-01-24T13:44:57;12.27;;;9.85;;
54416;SDS011;40326;51.220;7.250;2023-01-24T13:47:23;11.30;;;9.93;;
54416;SDS011;40326;51.220;7.250;2023-01-24T13:54:58;11.20;;;9.00;;
54416;SDS011;40326;51.220;7.250;2023-01-24T13:57:27;11.00;;;9.20;;
54416;SDS011;40326;51.220;7.250;2023-01-24T14:00:12;12.10;;;9.75;;
54416;SDS011;40326;51.220;7.250;2023-01-24T14:02:42;12.98;;;10.20;;
54416;SDS011;40326;51.220;7.250;2023-01-24T14:07:52;10.90;;;9.25;;
54416;SDS011;40326;51.220;7.250;2023-01-24T14:10:17;12.85;;;9.52;;
54416;SDS011;40326;51.220;7.250;2023-01-24T14:12:52;11.00;;;9.02;;
54416;SDS011;40326;51.220;7.250;2023-01-24T14:15:24;12.18;;;9.70;;
54416;SDS011;40326;51.220;7.250;2023-01-24T14:17:50;11.77;;;9.10;;
54416;SDS011;40326;51.220;7.250;2023-01-24T14:22:42;12.20;;;9.82;;
54416;SDS011;40326;51.220;7.250;2023-01-24T14:27:57;13.60;;;10.15;;
54416;SDS011;40326;51.220;7.250;2023-01-24T14:30:45;13.38;;;10.10;;
54416;SDS011;40326;51.220;7.250;2023-01-24T14:33:21;13.40;;;9.55;;
54416;SDS011;40326;51.220;7.250;2023-01-24T14:35:53;13.50;;;10.52;;
54416;SDS011;40326;51.220;7.250;2023-01-24T14:38:19;12.68;;;9.70;;
54416;SDS011;40326;51.220;7.250;2023-01-24T14:40:47;13.20;;;10.40;;
54416;SDS011;40326;51.220;7.250;2023-01-24T14:43:13;12.18;;;9.95;;
54416;SDS011;40326;51.220;7.250;2023-01-24T14:45:39;13.55;;;11.07;;
54416;SDS011;40326;51.220;7.250;2023-01-24T14:48:08;14.15;;;11.02;;
54416;SDS011;40326;51.220;7.250;2023-01-24T14:50:35;14.02;;;11.13;;
54416;SDS011;40326;51.220;7.250;2023-01-24T14:53:01;15.38;;;10.68;;
54416;SDS011;40326;51.220;7.250;2023-01-24T14:57:56;14.57;;;10.98;;
54416;SDS011;40326;51.220;7.250;2023-01-24T15:00:21;14.02;;;10.30;;
54416;SDS011;40326;51.220;7.250;2023-01-24T15:02:54;12.98;;;10.30;;
54416;SDS011;40326;51.220;7.250;2023-01-24T15:05:32;13.00;;;10.40;;
54416;SDS011;40326;51.220;7.250;2023-01-24T15:07:58;13.73;;;10.43;;
54416;SDS011;40326;51.220;7.250;2023-01-24T15:10:27;14.30;;;10.32;;
54416;SDS011;40326;51.220;7.250;2023-01-24T15:12:53;14.05;;;11.30;;
54416;SDS011;40326;51.220;7.250;2023-01-24T15:15:19;15.80;;;10.90;;
54416;SDS011;40326;51.220;7.250;2023-01-24T15:17:45;15.02;;;11.25;;
54416;SDS011;40326;51.220;7.250;2023-01-24T15:20:19;13.70;;;11.60;;
54416;SDS011;40326;51.220;7.250;2023-01-24T15:22:52;14.23;;;10.65;;
54416;SDS011;40326;51.220;7.250;2023-01-24T15:25:28;14.52;;;11.27;;
54416;SDS011;40326;51.220;7.250;2023-01-24T15:27:54;16.65;;;12.35;;
54416;SDS011;40326;51.220;7.250;2023-01-24T15:30:22;14.60;;;11.20;;
54416;SDS011;40326;51.220;7.250;2023-01-24T15:37:59;14.70;;;11.38;;
54416;SDS011;40326;51.220;7.250;2023-01-24T15:40:24;15.15;;;11.57;;
54416;SDS011;40326;51.220;7.250;2023-01-24T15:42:49;14.38;;;11.25;;
54416;SDS011;40326;51.220;7.250;2023-01-24T15:45:35;15.63;;;11.27;;
54416;SDS011;40326;51.220;7.250;2023-01-24T15:50:48;14.80;;;11.90;;
54416;SDS011;40326;51.220;7.250;2023-01-24T15:53:41;15.23;;;11.07;;
54416;SDS011;40326;51.220;7.250;2023-01-24T15:56:11;18.75;;;12.13;;
54416;SDS011;40326;51.220;7.250;2023-01-24T15:58:37;16.33;;;11.65;;
54416;SDS011;40326;51.220;7.250;2023-01-24T16:01:02;16.35;;;11.73;;
54416;SDS011;40326;51.220;7.250;2023-01-24T16:03:28;15.00;;;11.70;;
54416;SDS011;40326;51.220;7.250;2023-01-24T16:05:54;14.70;;;11.02;;
54416;SDS011;40326;51.220;7.250;2023-01-24T16:08:19;14.85;;;11.95;;
54416;SDS011;40326;51.220;7.250;2023-01-24T16:10:45;17.50;;;12.80;;
54416;SDS011;40326;51.220;7.250;2023-01-24T16:13:20;17.02;;;12.40;;
54416;SDS011;40326;51.220;7.250;2023-01-24T16:15:46;16.20;;;11.65;;
54416;SDS011;40326;51.220;7.250;2023-01-24T16:18:11;15.85;;;12.32;;
54416;SDS011;40326;51.220;7.250;2023-01-24T16:20:36;17.13;;;12.73;;
54416;SDS011;40326;51.220;7.250;2023-01-24T16:23:02;18.02;;;13.38;;
54416;SDS011;40326;51.220;7.250;2023-01-24T16:25:27;16.88;;;12.10;;
54416;SDS011;40326;51.220;7.250;2023-01-24T16:27:52;15.98;;;12.45;;
54416;SDS011;40326;51.220;7.250;2023-01-24T16:30:21;18.33;;;12.02;;
54416;SDS011;40326;51.220;7.250;2023-01-24T16:32:46;15.90;;;12.88;;
54416;SDS011;40326;51.220;7.250;2023-01-24T16:35:12;17.73;;;12.75;;
54416;SDS011;40326;51.220;7.250;2023-01-24T16:37:37;17.13;;;13.63;;
54416;SDS011;40326;51.220;7.250;2023-01-24T16:40:02;16.45;;;12.93;;
54416;SDS011;40326;51.220;7.250;2023-01-24T16:42:28;16.40;;;12.00;;
54416;SDS011;40326;51.220;7.250;2023-01-24T16:44:54;17.65;;;12.95;;
54416;SDS011;40326;51.220;7.250;2023-01-24T16:47:20;16.77;;;12.57;;